sensor_id;sensor_type;location;lat;lon;timestamp;pressure;altitude;pressure_sealevel;temperature;humidity
10604;BME280;5349;41.554;23.274;2022-12-05T00:00:36;100450.72;;;10.83;100.00
10604;BME280;5349;41.554;23.274;2022-12-05T00:03:03;100444.06;;;10.79;100.00
10604;BME280;5349;41.554;23.274;2022-12-05T00:05:31;100456.28;;;10.74;100.00
10604;BME280;5349;41.554;23.274;2022-12-05T00:07:58;100440.41;;;10.72;100.00
10604;BME280;5349;41.554;23.274;2022-12-05T00:10:25;100446.28;;;10.68;100.00
10604;BME280;5349;41.554;23.274;2022-12-05T00:12:52;100440.44;;;10.64;100.00
10604;BME280;5349;41.554;23.274;2022-12-05T00:15:18;100438.09;;;10.61;100.00
10604;BME280;5349;41.554;23.274;2022-12-05T00:17:45;100436.28;;;10.70;100.00
10604;BME280;5349;41.554;23.274;2022-12-05T00:20:12;100437.59;;;10.74;100.00
10604;BME280;5349;41.554;23.274;2022-12-05T00:22:40;100434.25;;;10.80;100.00
10604;BME280;5349;41.554;23.274;2022-12-05T00:25:08;100425.56;;;10.78;100.00
10604;BME280;5349;41.554;23.274;2022-12-05T00:27:35;100431.06;;;10.76;100.00
10604;BME280;5349;41.554;23.274;2022-12-05T00:30:03;100433.06;;;10.74;100.00
10604;BME280;5349;41.554;23.274;2022-12-05T00:32:30;100432.25;;;10.74;100.00
10604;BME280;5349;41.554;23.274;2022-12-05T00:34:57;100434.06;;;10.73;100.00
10604;BME280;5349;41.554;23.274;2022-12-05T00:37:24;100428.06;;;10.79;100.00
10604;BME280;5349;41.554;23.274;2022-12-05T00:39:52;100421.38;;;10.83;100.00
10604;BME280;5349;41.554;23.274;2022-12-05T00:42:19;100433.69;;;10.92;100.00
10604;BME280;5349;41.554;23.274;2022-12-05T00:44:48;100405.69;;;10.80;100.00
10604;BME280;5349;41.554;23.274;2022-12-05T00:47:15;100437.28;;;11.07;100.00
10604;BME280;5349;41.554;23.274;2022-12-05T00:49:42;100430.06;;;11.15;100.00
10604;BME280;5349;41.554;23.274;2022-12-05T00:52:08;100428.53;;;11.21;100.00
10604;BME280;5349;41.554;23.274;2022-12-05T00:54:35;100432.53;;;11.25;100.00
10604;BME280;5349;41.554;23.274;2022-12-05T00:57:03;100436.88;;;11.26;100.00
10604;BME280;5349;41.554;23.274;2022-12-05T00:59:30;100436.13;;;11.32;100.00
10604;BME280;5349;41.554;23.274;2022-12-05T01:01:57;100429.63;;;11.34;100.00
10604;BME280;5349;41.554;23.274;2022-12-05T01:04:24;100432.09;;;11.36;100.00
10604;BME280;5349;41.554;23.274;2022-12-05T01:06:54;100419.41;;;11.38;100.00
10604;BME280;5349;41.554;23.274;2022-12-05T01:09:21;100411.59;;;11.36;100.00
10604;BME280;5349;41.554;23.274;2022-12-05T01:11:48;100412.06;;;11.40;100.00
10604;BME280;5349;41.554;23.274;2022-12-05T01:14:18;100414.56;;;11.41;100.00
10604;BME280;5349;41.554;23.274;2022-12-05T01:16:47;100411.03;;;11.41;100.00
10604;BME280;5349;41.554;23.274;2022-12-05T01:19:16;100405.88;;;11.39;100.00
10604;BME280;5349;41.554;23.274;2022-12-05T01:21:43;100411.03;;;11.41;100.00
10604;BME280;5349;41.554;23.274;2022-12-05T01:24:11;100385.81;;;11.21;100.00
10604;BME280;5349;41.554;23.274;2022-12-05T01:26:39;100404.38;;;11.37;100.00
10604;BME280;5349;41.554;23.274;2022-12-05T01:29:06;100410.81;;;11.28;100.00
10604;BME280;5349;41.554;23.274;2022-12-05T01:31:35;100413.84;;;11.25;100.00
10604;BME280;5349;41.554;23.274;2022-12-05T01:34:04;100409.31;;;11.25;100.00
10604;BME280;5349;41.554;23.274;2022-12-05T01:36:31;100405.16;;;11.23;100.00
10604;BME280;5349;41.554;23.274;2022-12-05T01:38:59;100396.69;;;11.11;100.00
10604;BME280;5349;41.554;23.274;2022-12-05T01:41:27;100398.88;;;11.16;100.00
10604;BME280;5349;41.554;23.274;2022-12-05T01:43:57;100412.22;;;11.16;100.00
10604;BME280;5349;41.554;23.274;2022-12-05T01:46:26;100408.53;;;11.17;100.00
10604;BME280;5349;41.554;23.274;2022-12-05T01:48:59;100410.88;;;11.20;100.00
10604;BME280;5349;41.554;23.274;2022-12-05T01:51:27;100405.53;;;11.20;100.00
10604;BME280;5349;41.554;23.274;2022-12-05T01:53:55;100397.50;;;11.20;100.00
10604;BME280;5349;41.554;23.274;2022-12-05T01:56:22;100384.19;;;11.12;100.00
10604;BME280;5349;41.554;23.274;2022-12-05T01:58:50;100377.84;;;11.13;100.00
10604;BME280;5349;41.554;23.274;2022-12-05T02:01:18;100377.84;;;11.13;100.00
10604;BME280;5349;41.554;23.274;2022-12-05T02:03:47;100374.22;;;11.06;100.00
10604;BME280;5349;41.554;23.274;2022-12-05T02:06:17;100377.94;;;10.97;100.00
10604;BME280;5349;41.554;23.274;2022-12-05T02:08:45;100380.66;;;10.89;100.00
10604;BME280;5349;41.554;23.274;2022-12-05T02:11:12;100372.31;;;10.84;100.00
10604;BME280;5349;41.554;23.274;2022-12-05T02:14:13;100367.69;;;10.78;100.00
10604;BME280;5349;41.554;23.274;2022-12-05T02:16:50;100366.66;;;10.79;100.00
10604;BME280;5349;41.554;23.274;2022-12-05T02:19:41;100362.19;;;10.80;100.00
10604;BME280;5349;41.554;23.274;2022-12-05T02:25:39;100364.50;;;10.83;100.00
10604;BME280;5349;41.554;23.274;2022-12-05T02:28:33;100368.31;;;10.88;100.00
10604;BME280;5349;41.554;23.274;2022-12-05T02:31:12;100354.44;;;10.92;100.00
10604;BME280;5349;41.554;23.274;2022-12-05T02:33:44;100355.56;;;10.98;100.00
10604;BME280;5349;41.554;23.274;2022-12-05T02:36:16;100355.22;;;11.01;100.00
10604;BME280;5349;41.554;23.274;2022-12-05T02:38:51;100353.69;;;11.06;100.00
10604;BME280;5349;41.554;23.274;2022-12-05T02:41:24;100352.88;;;11.06;100.00
10604;BME280;5349;41.554;23.274;2022-12-05T02:43:57;100351.19;;;11.05;100.00
10604;BME280;5349;41.554;23.274;2022-12-05T02:46:28;100366.06;;;10.99;100.00
10604;BME280;5349;41.554;23.274;2022-12-05T02:48:59;100341.31;;;10.83;100.00
10604;BME280;5349;41.554;23.274;2022-12-05T02:51:30;100363.59;;;10.98;100.00
10604;BME280;5349;41.554;23.274;2022-12-05T02:54:04;100359.38;;;11.03;100.00
10604;BME280;5349;41.554;23.274;2022-12-05T02:56:34;100349.19;;;11.07;100.00
10604;BME280;5349;41.554;23.274;2022-12-05T02:59:02;100355.53;;;11.06;100.00
10604;BME280;5349;41.554;23.274;2022-12-05T03:01:31;100354.34;;;11.08;100.00
10604;BME280;5349;41.554;23.274;2022-12-05T03:04:00;100351.50;;;11.10;100.00
10604;BME280;5349;41.554;23.274;2022-12-05T03:06:30;100349.50;;;11.12;100.00
10604;BME280;5349;41.554;23.274;2022-12-05T03:09:00;100354.16;;;11.10;100.00
10604;BME280;5349;41.554;23.274;2022-12-05T03:11:31;100359.66;;;11.08;100.00
10604;BME280;5349;41.554;23.274;2022-12-05T03:14:02;100362.88;;;11.04;100.00
10604;BME280;5349;41.554;23.274;2022-12-05T03:16:32;100364.53;;;11.05;100.00
10604;BME280;5349;41.554;23.274;2022-12-05T03:19:06;100360.25;;;10.96;100.00
10604;BME280;5349;41.554;23.274;2022-12-05T03:21:41;100362.66;;;10.83;100.00
10604;BME280;5349;41.554;23.274;2022-12-05T03:24:13;100366.66;;;10.79;100.00
10604;BME280;5349;41.554;23.274;2022-12-05T03:26:48;100369.28;;;10.57;100.00
10604;BME280;5349;41.554;23.274;2022-12-05T03:29:23;100372.50;;;10.44;100.00
10604;BME280;5349;41.554;23.274;2022-12-05T03:32:02;100377.66;;;10.38;100.00
10604;BME280;5349;41.554;23.274;2022-12-05T03:34:42;100370.53;;;10.30;100.00
10604;BME280;5349;41.554;23.274;2022-12-05T03:37:15;100371.03;;;10.26;100.00
10604;BME280;5349;41.554;23.274;2022-12-05T03:39:48;100371.22;;;10.24;100.00
10604;BME280;5349;41.554;23.274;2022-12-05T03:42:27;100368.53;;;10.24;100.00
10604;BME280;5349;41.554;23.274;2022-12-05T03:44:59;100373.19;;;10.30;100.00
10604;BME280;5349;41.554;23.274;2022-12-05T03:47:34;100378.53;;;10.30;100.00
10604;BME280;5349;41.554;23.274;2022-12-05T03:50:09;100382.19;;;10.29;100.00
10604;BME280;5349;41.554;23.274;2022-12-05T03:52:42;100386.53;;;10.30;100.00
10604;BME280;5349;41.554;23.274;2022-12-05T03:55:12;100366.03;;;10.23;100.00
10604;BME280;5349;41.554;23.274;2022-12-05T03:57:43;100391.16;;;10.44;100.00
10604;BME280;5349;41.554;23.274;2022-12-05T04:00:15;100388.97;;;10.56;100.00
10604;BME280;5349;41.554;23.274;2022-12-05T04:02:48;100389.41;;;10.67;100.00
10604;BME280;5349;41.554;23.274;2022-12-05T04:05:19;100396.22;;;10.78;100.00
10604;BME280;5349;41.554;23.274;2022-12-05T04:07:51;100394.03;;;10.81;100.00
10604;BME280;5349;41.554;23.274;2022-12-05T04:10:22;100381.56;;;10.74;100.00
10604;BME280;5349;41.554;23.274;2022-12-05T04:12:54;100397.66;;;10.88;100.00
10604;BME280;5349;41.554;23.274;2022-12-05T04:15:24;100400.03;;;10.83;100.00
10604;BME280;5349;41.554;23.274;2022-12-05T04:17:57;100402.06;;;10.73;100.00
10604;BME280;5349;41.554;23.274;2022-12-05T04:20:26;100395.59;;;10.68;100.00
10604;BME280;5349;41.554;23.274;2022-12-05T04:23:13;100391.44;;;10.57;100.00
10604;BME280;5349;41.554;23.274;2022-12-05T04:25:49;100391.63;;;10.56;100.00
10604;BME280;5349;41.554;23.274;2022-12-05T04:28:26;100383.50;;;10.49;100.00
10604;BME280;5349;41.554;23.274;2022-12-05T04:31:00;100383.50;;;10.49;100.00
10604;BME280;5349;41.554;23.274;2022-12-05T04:33:34;100379.50;;;10.45;100.00
10604;BME280;5349;41.554;23.274;2022-12-05T04:36:08;100382.50;;;10.42;100.00
10604;BME280;5349;41.554;23.274;2022-12-05T04:38:40;100380.00;;;10.41;100.00
10604;BME280;5349;41.554;23.274;2022-12-05T04:41:11;100381.84;;;10.40;100.00
10604;BME280;5349;41.554;23.274;2022-12-05T04:43:40;100374.53;;;10.34;100.00
10604;BME280;5349;41.554;23.274;2022-12-05T04:46:10;100372.88;;;10.33;100.00
10604;BME280;5349;41.554;23.274;2022-12-05T04:48:42;100382.84;;;10.39;100.00
10604;BME280;5349;41.554;23.274;2022-12-05T04:51:16;100372.31;;;10.46;100.00
10604;BME280;5349;41.554;23.274;2022-12-05T04:53:45;100384.97;;;10.52;100.00
10604;BME280;5349;41.554;23.274;2022-12-05T04:56:16;100388.41;;;10.60;100.00
10604;BME280;5349;41.554;23.274;2022-12-05T04:58:44;100385.41;;;10.63;100.00
10604;BME280;5349;41.554;23.274;2022-12-05T05:01:16;100387.41;;;10.69;100.00
10604;BME280;5349;41.554;23.274;2022-12-05T05:03:49;100392.56;;;10.71;100.00
10604;BME280;5349;41.554;23.274;2022-12-05T05:06:17;100402.56;;;10.77;100.00
10604;BME280;5349;41.554;23.274;2022-12-05T05:08:48;100400.03;;;10.75;100.00
10604;BME280;5349;41.554;23.274;2022-12-05T05:11:18;100403.38;;;10.77;100.00
10604;BME280;5349;41.554;23.274;2022-12-05T05:13:45;100405.38;;;10.75;100.00
10604;BME280;5349;41.554;23.274;2022-12-05T05:16:14;100409.59;;;10.70;100.00
10604;BME280;5349;41.554;23.274;2022-12-05T05:18:42;100409.78;;;10.60;100.00
10604;BME280;5349;41.554;23.274;2022-12-05T05:21:16;100427.34;;;10.39;100.00
10604;BME280;5349;41.554;23.274;2022-12-05T05:23:43;100414.34;;;10.28;100.00
10604;BME280;5349;41.554;23.274;2022-12-05T05:26:10;100407.41;;;10.11;100.00
10604;BME280;5349;41.554;23.274;2022-12-05T05:28:37;100410.22;;;10.01;100.00
10604;BME280;5349;41.554;23.274;2022-12-05T05:31:05;100414.03;;;9.99;100.00
10604;BME280;5349;41.554;23.274;2022-12-05T05:33:33;100390.22;;;9.89;100.00
10604;BME280;5349;41.554;23.274;2022-12-05T05:36:02;100416.72;;;10.15;100.00
10604;BME280;5349;41.554;23.274;2022-12-05T05:38:34;100407.88;;;10.22;100.00
10604;BME280;5349;41.554;23.274;2022-12-05T05:41:01;100413.34;;;10.29;100.00
10604;BME280;5349;41.554;23.274;2022-12-05T05:43:28;100418.84;;;10.35;100.00
10604;BME280;5349;41.554;23.274;2022-12-05T05:45:55;100423.34;;;10.27;100.00
10604;BME280;5349;41.554;23.274;2022-12-05T05:48:22;100422.53;;;10.34;100.00
10604;BME280;5349;41.554;23.274;2022-12-05T05:50:48;100419.50;;;10.45;100.00
10604;BME280;5349;41.554;23.274;2022-12-05T05:53:15;100434.97;;;10.58;100.00
10604;BME280;5349;41.554;23.274;2022-12-05T05:55:43;100433.75;;;10.68;100.00
10604;BME280;5349;41.554;23.274;2022-12-05T05:58:10;100440.94;;;10.76;100.00
10604;BME280;5349;41.554;23.274;2022-12-05T06:00:37;100441.06;;;10.82;100.00
10604;BME280;5349;41.554;23.274;2022-12-05T06:03:04;100439.38;;;10.89;100.00
10604;BME280;5349;41.554;23.274;2022-12-05T06:05:31;100439.50;;;10.95;100.00
10604;BME280;5349;41.554;23.274;2022-12-05T06:07:57;100444.31;;;11.00;100.00
10604;BME280;5349;41.554;23.274;2022-12-05T06:10:24;100439.50;;;10.95;100.00
10604;BME280;5349;41.554;23.274;2022-12-05T06:12:52;100444.03;;;10.87;100.00
10604;BME280;5349;41.554;23.274;2022-12-05T06:15:19;100442.09;;;10.65;100.00
10604;BME280;5349;41.554;23.274;2022-12-05T06:17:46;100446.31;;;10.52;100.00
10604;BME280;5349;41.554;23.274;2022-12-05T06:20:13;100449.31;;;10.57;100.00
10604;BME280;5349;41.554;23.274;2022-12-05T06:22:40;100448.50;;;10.56;100.00
10604;BME280;5349;41.554;23.274;2022-12-05T06:25:08;100443.84;;;10.50;100.00
10604;BME280;5349;41.554;23.274;2022-12-05T06:27:35;100419.88;;;10.26;100.00
10604;BME280;5349;41.554;23.274;2022-12-05T06:30:04;100448.00;;;10.45;100.00
10604;BME280;5349;41.554;23.274;2022-12-05T06:32:31;100443.66;;;10.44;100.00
10604;BME280;5349;41.554;23.274;2022-12-05T06:34:58;100452.53;;;10.36;100.00
10604;BME280;5349;41.554;23.274;2022-12-05T06:37:35;100454.53;;;10.42;100.00
10604;BME280;5349;41.554;23.274;2022-12-05T06:40:02;100458.84;;;10.43;100.00
10604;BME280;5349;41.554;23.274;2022-12-05T06:42:30;100462.50;;;10.50;100.00
10604;BME280;5349;41.554;23.274;2022-12-05T06:44:57;100456.16;;;10.51;100.00
10604;BME280;5349;41.554;23.274;2022-12-05T06:47:25;100466.50;;;10.54;100.00
10604;BME280;5349;41.554;23.274;2022-12-05T06:49:52;100470.13;;;10.61;100.00
10604;BME280;5349;41.554;23.274;2022-12-05T06:52:18;100471.44;;;10.65;100.00
10604;BME280;5349;41.554;23.274;2022-12-05T06:54:45;100477.63;;;10.74;100.00
10604;BME280;5349;41.554;23.274;2022-12-05T06:57:12;100482.41;;;10.86;100.00
10604;BME280;5349;41.554;23.274;2022-12-05T06:59:39;100483.41;;;10.85;100.00
10604;BME280;5349;41.554;23.274;2022-12-05T07:02:06;100482.94;;;10.82;100.00
10604;BME280;5349;41.554;23.274;2022-12-05T07:04:34;100481.94;;;10.83;100.00
10604;BME280;5349;41.554;23.274;2022-12-05T07:07:00;100483.06;;;10.88;100.00
10604;BME280;5349;41.554;23.274;2022-12-05T07:09:28;100493.72;;;10.96;100.00
10604;BME280;5349;41.554;23.274;2022-12-05T07:12:08;100469.72;;;10.88;100.00
10604;BME280;5349;41.554;23.274;2022-12-05T07:14:35;100493.38;;;10.99;100.00
10604;BME280;5349;41.554;23.274;2022-12-05T07:17:02;100502.56;;;10.96;100.00
10604;BME280;5349;41.554;23.274;2022-12-05T07:19:29;100497.41;;;10.95;100.00
10604;BME280;5349;41.554;23.274;2022-12-05T07:21:57;100504.72;;;11.01;100.00
10604;BME280;5349;41.554;23.274;2022-12-05T07:24:24;100491.72;;;10.98;100.00
10604;BME280;5349;41.554;23.274;2022-12-05T07:26:51;100493.25;;;10.92;100.00
10604;BME280;5349;41.554;23.274;2022-12-05T07:29:18;100476.94;;;10.80;100.00
10604;BME280;5349;41.554;23.274;2022-12-05T07:31:44;100495.06;;;10.92;100.00
10604;BME280;5349;41.554;23.274;2022-12-05T07:34:11;100499.41;;;10.93;100.00
10604;BME280;5349;41.554;23.274;2022-12-05T07:36:38;100507.22;;;10.94;100.00
10604;BME280;5349;41.554;23.274;2022-12-05T07:39:06;100516.41;;;11.00;100.00
10604;BME280;5349;41.554;23.274;2022-12-05T07:41:33;100511.06;;;11.00;100.00
10604;BME280;5349;41.554;23.274;2022-12-05T07:44:00;100504.88;;;10.99;100.00
10604;BME280;5349;41.554;23.274;2022-12-05T07:46:27;100512.75;;;11.01;100.00
10604;BME280;5349;41.554;23.274;2022-12-05T07:48:55;100509.69;;;11.12;100.00
10604;BME280;5349;41.554;23.274;2022-12-05T07:51:22;100511.38;;;11.13;100.00
10604;BME280;5349;41.554;23.274;2022-12-05T07:53:49;100506.34;;;11.18;100.00
10604;BME280;5349;41.554;23.274;2022-12-05T07:56:17;100477.00;;;11.10;100.00
10604;BME280;5349;41.554;23.274;2022-12-05T07:58:45;100504.78;;;11.31;100.00
10604;BME280;5349;41.554;23.274;2022-12-05T08:01:14;100478.97;;;11.16;100.00
10604;BME280;5349;41.554;23.274;2022-12-05T08:03:42;100502.44;;;11.28;100.00
10604;BME280;5349;41.554;23.274;2022-12-05T08:06:11;100514.25;;;10.95;100.00
10604;BME280;5349;41.554;23.274;2022-12-05T08:08:39;100504.38;;;11.04;100.00
10604;BME280;5349;41.554;23.274;2022-12-05T08:11:09;100508.72;;;11.05;100.00
10604;BME280;5349;41.554;23.274;2022-12-05T08:13:38;100506.03;;;11.05;100.00
10604;BME280;5349;41.554;23.274;2022-12-05T08:16:07;100503.56;;;10.95;100.00
10604;BME280;5349;41.554;23.274;2022-12-05T08:18:35;100506.38;;;11.02;100.00
10604;BME280;5349;41.554;23.274;2022-12-05T08:21:02;100512.88;;;11.07;100.00
10604;BME280;5349;41.554;23.274;2022-12-05T08:23:29;100520.38;;;11.12;100.00
10604;BME280;5349;41.554;23.274;2022-12-05T08:26:00;100512.50;;;11.18;100.00
10604;BME280;5349;41.554;23.274;2022-12-05T08:28:27;100518.28;;;11.30;100.00
10604;BME280;5349;41.554;23.274;2022-12-05T08:30:55;100504.88;;;11.38;100.00
10604;BME280;5349;41.554;23.274;2022-12-05T08:33:28;100512.06;;;11.45;100.00
10604;BME280;5349;41.554;23.274;2022-12-05T08:35:55;100506.16;;;11.50;100.00
10604;BME280;5349;41.554;23.274;2022-12-05T08:38:21;100507.88;;;11.43;100.00
10604;BME280;5349;41.554;23.274;2022-12-05T08:40:48;100506.09;;;11.35;100.00
10604;BME280;5349;41.554;23.274;2022-12-05T08:43:15;100503.88;;;11.39;100.00
10604;BME280;5349;41.554;23.274;2022-12-05T08:45:48;100507.88;;;11.43;100.00
10604;BME280;5349;41.554;23.274;2022-12-05T08:48:16;100504.50;;;11.49;100.00
10604;BME280;5349;41.554;23.274;2022-12-05T08:50:43;100494.47;;;11.51;100.00
10604;BME280;5349;41.554;23.274;2022-12-05T08:53:10;100502.69;;;11.57;100.00
10604;BME280;5349;41.554;23.274;2022-12-05T08:55:37;100497.09;;;11.67;100.00
10604;BME280;5349;41.554;23.274;2022-12-05T08:58:04;100504.72;;;11.78;100.00
10604;BME280;5349;41.554;23.274;2022-12-05T09:00:31;100498.34;;;11.79;100.00
10604;BME280;5349;41.554;23.274;2022-12-05T09:02:58;100488.69;;;11.78;100.00
10604;BME280;5349;41.554;23.274;2022-12-05T09:05:26;100486.31;;;11.83;100.00
10604;BME280;5349;41.554;23.274;2022-12-05T09:07:53;100493.13;;;11.85;100.00
10604;BME280;5349;41.554;23.274;2022-12-05T09:10:20;100479.09;;;11.83;100.00
10604;BME280;5349;41.554;23.274;2022-12-05T09:12:47;100480.72;;;11.92;100.00
10604;BME280;5349;41.554;23.274;2022-12-05T09:15:15;100483.03;;;11.95;100.00
10604;BME280;5349;41.554;23.274;2022-12-05T09:17:42;100483.53;;;11.99;100.00
10604;BME280;5349;41.554;23.274;2022-12-05T09:20:09;100484.53;;;11.98;100.00
10604;BME280;5349;41.554;23.274;2022-12-05T09:22:39;100484.44;;;12.06;100.00
10604;BME280;5349;41.554;23.274;2022-12-05T09:25:07;100483.38;;;12.14;100.00
10604;BME280;5349;41.554;23.274;2022-12-05T09:27:35;100477.78;;;12.24;100.00
10604;BME280;5349;41.554;23.274;2022-12-05T09:30:02;100476.34;;;12.36;100.00
10604;BME280;5349;41.554;23.274;2022-12-05T09:32:29;100475.88;;;12.47;100.00
10604;BME280;5349;41.554;23.274;2022-12-05T09:34:56;100465.19;;;12.47;100.00
10604;BME280;5349;41.554;23.274;2022-12-05T09:37:23;100466.66;;;12.49;100.00
10604;BME280;5349;41.554;23.274;2022-12-05T09:39:51;100467.59;;;12.56;100.00
10604;BME280;5349;41.554;23.274;2022-12-05T09:42:29;100464.38;;;12.61;100.00
10604;BME280;5349;41.554;23.274;2022-12-05T09:47:50;100462.09;;;12.72;100.00
10604;BME280;5349;41.554;23.274;2022-12-05T09:50:22;100452.66;;;12.76;100.00
10604;BME280;5349;41.554;23.274;2022-12-05T09:52:57;100455.59;;;12.81;100.00
10604;BME280;5349;41.554;23.274;2022-12-05T09:55:34;100455.38;;;12.91;100.00
10604;BME280;5349;41.554;23.274;2022-12-05T09:58:02;100450.47;;;12.94;100.00
10604;BME280;5349;41.554;23.274;2022-12-05T10:00:31;100441.53;;;13.02;100.00
10604;BME280;5349;41.554;23.274;2022-12-05T10:03:04;100439.13;;;13.07;100.00
10604;BME280;5349;41.554;23.274;2022-12-05T10:05:42;100442.72;;;12.99;100.00
10604;BME280;5349;41.554;23.274;2022-12-05T10:08:16;100435.78;;;13.05;100.00
10604;BME280;5349;41.554;23.274;2022-12-05T10:10:56;100437.16;;;13.15;100.00
10604;BME280;5349;41.554;23.274;2022-12-05T10:13:41;100440.91;;;13.21;100.00
10604;BME280;5349;41.554;23.274;2022-12-05T10:16:13;100438.72;;;13.24;100.00
10604;BME280;5349;41.554;23.274;2022-12-05T10:18:46;100429.75;;;13.17;100.00
10604;BME280;5349;41.554;23.274;2022-12-05T10:21:17;100411.84;;;13.03;100.00
10604;BME280;5349;41.554;23.274;2022-12-05T10:23:52;100425.31;;;13.24;100.00
10604;BME280;5349;41.554;23.274;2022-12-05T10:26:23;100429.53;;;13.33;100.00
10604;BME280;5349;41.554;23.274;2022-12-05T10:28:56;100426.03;;;13.32;100.00
10604;BME280;5349;41.554;23.274;2022-12-05T10:31:29;100425.84;;;13.34;100.00
10604;BME280;5349;41.554;23.274;2022-12-05T10:34:03;100411.88;;;13.38;100.00
10604;BME280;5349;41.554;23.274;2022-12-05T10:36:32;100410.69;;;13.41;100.00
10604;BME280;5349;41.554;23.274;2022-12-05T10:38:59;100405.88;;;13.36;100.00
10604;BME280;5349;41.554;23.274;2022-12-05T10:41:28;100398.66;;;13.37;100.00
10604;BME280;5349;41.554;23.274;2022-12-05T10:43:56;100398.94;;;13.42;100.00
10604;BME280;5349;41.554;23.274;2022-12-05T10:46:24;100400.66;;;13.49;100.00
10604;BME280;5349;41.554;23.274;2022-12-05T10:48:53;100393.25;;;13.51;100.00
10604;BME280;5349;41.554;23.274;2022-12-05T10:51:24;100391.38;;;13.52;100.00
10604;BME280;5349;41.554;23.274;2022-12-05T10:53:52;100389.94;;;13.49;100.00
10604;BME280;5349;41.554;23.274;2022-12-05T10:56:41;100391.97;;;13.47;100.00
10604;BME280;5349;41.554;23.274;2022-12-05T10:59:10;100388.06;;;13.50;100.00
10604;BME280;5349;41.554;23.274;2022-12-05T11:01:43;100382.59;;;13.37;100.00
10604;BME280;5349;41.554;23.274;2022-12-05T11:04:19;100379.31;;;13.41;100.00
10604;BME280;5349;41.554;23.274;2022-12-05T11:06:52;100373.53;;;13.38;100.00
10604;BME280;5349;41.554;23.274;2022-12-05T11:09:22;100373.53;;;13.38;100.00
10604;BME280;5349;41.554;23.274;2022-12-05T11:12:17;100372.91;;;13.36;100.00
10604;BME280;5349;41.554;23.274;2022-12-05T11:14:56;100370.38;;;13.34;100.00
10604;BME280;5349;41.554;23.274;2022-12-05T11:17:25;100360.31;;;13.36;100.00
10604;BME280;5349;41.554;23.274;2022-12-05T11:19:52;100372.78;;;13.44;100.00
10604;BME280;5349;41.554;23.274;2022-12-05T11:22:19;100369.50;;;13.48;100.00
10604;BME280;5349;41.554;23.274;2022-12-05T11:24:47;100363.38;;;13.54;100.00
10604;BME280;5349;41.554;23.274;2022-12-05T11:27:26;100359.84;;;13.54;100.00
10604;BME280;5349;41.554;23.274;2022-12-05T11:29:56;100362.16;;;13.57;100.00
10604;BME280;5349;41.554;23.274;2022-12-05T11:32:25;100357.44;;;13.59;100.00
10604;BME280;5349;41.554;23.274;2022-12-05T11:34:55;100356.25;;;13.61;100.00
10604;BME280;5349;41.554;23.274;2022-12-05T11:37:26;100356.03;;;13.63;100.00
10604;BME280;5349;41.554;23.274;2022-12-05T11:39:55;100358.06;;;13.61;100.00
10604;BME280;5349;41.554;23.274;2022-12-05T11:42:33;100356.88;;;13.63;100.00
10604;BME280;5349;41.554;23.274;2022-12-05T11:45:40;100350.88;;;13.61;100.00
10604;BME280;5349;41.554;23.274;2022-12-05T11:48:26;100334.44;;;13.50;100.00
10604;BME280;5349;41.554;23.274;2022-12-05T11:51:09;100338.75;;;13.44;100.00
10604;BME280;5349;41.554;23.274;2022-12-05T11:53:59;100343.50;;;13.49;100.00
10604;BME280;5349;41.554;23.274;2022-12-05T11:56:36;100346.28;;;13.55;100.00
10604;BME280;5349;41.554;23.274;2022-12-05T11:59:25;100342.75;;;13.55;100.00
10604;BME280;5349;41.554;23.274;2022-12-05T12:01:59;100337.22;;;13.56;100.00
10604;BME280;5349;41.554;23.274;2022-12-05T12:04:46;100329.34;;;13.55;100.00
10604;BME280;5349;41.554;23.274;2022-12-05T12:07:24;100333.78;;;13.62;100.00
10604;BME280;5349;41.554;23.274;2022-12-05T12:10:04;100338.53;;;13.67;100.00
10604;BME280;5349;41.554;23.274;2022-12-05T12:12:40;100333.63;;;13.70;100.00
10604;BME280;5349;41.554;23.274;2022-12-05T12:15:37;100332.16;;;13.68;100.00
10604;BME280;5349;41.554;23.274;2022-12-05T12:18:16;100330.88;;;13.64;100.00
10604;BME280;5349;41.554;23.274;2022-12-05T12:20:56;100324.25;;;13.60;100.00
10604;BME280;5349;41.554;23.274;2022-12-05T12:23:40;100322.97;;;13.56;100.00
10604;BME280;5349;41.554;23.274;2022-12-05T12:26:12;100315.78;;;13.56;100.00
10604;BME280;5349;41.554;23.274;2022-12-05T12:28:48;100307.09;;;13.54;100.00
10604;BME280;5349;41.554;23.274;2022-12-05T12:31:52;100310.59;;;13.55;100.00
10604;BME280;5349;41.554;23.274;2022-12-05T12:34:32;100308.28;;;13.52;100.00
10604;BME280;5349;41.554;23.274;2022-12-05T12:37:07;100307.66;;;13.50;100.00
10604;BME280;5349;41.554;23.274;2022-12-05T12:39:47;100307.66;;;13.50;100.00
10604;BME280;5349;41.554;23.274;2022-12-05T12:42:22;100311.19;;;13.50;100.00
10604;BME280;5349;41.554;23.274;2022-12-05T12:45:18;100305.59;;;13.52;100.00
10604;BME280;5349;41.554;23.274;2022-12-05T12:48:00;100303.94;;;13.51;100.00
10604;BME280;5349;41.554;23.274;2022-12-05T12:50:32;100300.25;;;13.52;100.00
10604;BME280;5349;41.554;23.274;2022-12-05T12:53:27;100296.50;;;13.46;100.00
10604;BME280;5349;41.554;23.274;2022-12-05T12:56:03;100294.66;;;13.47;100.00
10604;BME280;5349;41.554;23.274;2022-12-05T12:58:46;100296.13;;;13.49;100.00
10604;BME280;5349;41.554;23.274;2022-12-05T13:01:24;100295.09;;;13.50;100.00
10604;BME280;5349;41.554;23.274;2022-12-05T13:04:02;100299.81;;;13.48;100.00
10604;BME280;5349;41.554;23.274;2022-12-05T13:06:34;100286.00;;;13.45;100.00